Time;durP1;ratioP1;P1;durP2;ratioP2;P2;SDS_P1;SDS_P2;PMS_P1;PMS_P2;Temp;Humidity;BMP_temperature;BMP_pressure;BME280_temperature;BME280_humidity;BME280_pressure;Samples;Min_cycle;Max_cycle;Signal;HPM_P1;HPM_P2
2023/08/24 00:01:16;;;;;;;9.80;6.70;;;;;;;17.48;100.00;101635.47;4991720;28;20334;-67
2023/08/24 00:03:41;;;;;;;7.45;6.15;;;;;;;17.44;100.00;101639.78;4991873;28;20054;-66
2023/08/24 00:06:07;;;;;;;6.85;6.13;;;;;;;17.39;100.00;101630.97;4991977;28;20068;-67
2023/08/24 00:08:32;;;;;;;9.23;6.93;;;;;;;17.35;100.00;101624.78;4991811;28;20681;-66
2023/08/24 00:10:58;;;;;;;9.70;7.55;;;;;;;17.33;100.00;101631.72;4991044;28;20586;-66
2023/08/24 00:13:23;;;;;;;9.15;6.25;;;;;;;17.32;100.00;101629.97;4991953;28;20033;-63
2023/08/24 00:15:48;;;;;;;8.32;6.75;;;;;;;17.31;100.00;101632.56;4991803;28;20354;-67
2023/08/24 00:18:14;;;;;;;9.50;7.32;;;;;;;17.30;100.00;101641.28;4991560;28;20513;-68
2023/08/24 00:20:39;;;;;;;7.88;6.75;;;;;;;17.28;100.00;101644.75;4991367;28;20034;-64
2023/08/24 00:23:04;;;;;;;8.55;6.90;;;;;;;17.25;100.00;101634.22;4991003;28;20105;-67
2023/08/24 00:25:30;;;;;;;8.70;6.75;;;;;;;17.21;100.00;101624.56;4991028;28;20022;-67
2023/08/24 00:27:56;;;;;;;7.45;6.32;;;;;;;17.18;100.00;101623.63;4991723;28;20022;-66
2023/08/24 00:30:22;;;;;;;7.40;6.70;;;;;;;17.14;100.00;101614.84;4988496;28;20235;-67
2023/08/24 00:32:47;;;;;;;8.48;7.10;;;;;;;17.12;100.00;101606.97;4981171;28;20158;-65
2023/08/24 00:35:12;;;;;;;8.77;7.43;;;;;;;17.11;100.00;101612.16;4991287;28;20121;-67
2023/08/24 00:37:38;;;;;;;11.13;7.22;;;;;;;17.09;100.00;101616.47;4983352;28;20023;-66
2023/08/24 00:40:08;;;;;;;8.18;7.30;;;;;;;17.05;100.00;101619.00;4979153;28;20029;-66
2023/08/24 00:42:38;;;;;;;9.18;6.80;;;;;;;17.01;100.00;101625.06;4991421;28;20034;-66
2023/08/24 00:45:04;;;;;;;10.38;7.15;;;;;;;16.97;100.00;101615.38;4991167;28;20349;-66
2023/08/24 00:47:29;;;;;;;7.40;6.65;;;;;;;16.96;100.00;101611.03;4991212;28;20057;-67
2023/08/24 00:49:55;;;;;;;9.38;6.93;;;;;;;16.93;100.00;101600.47;4990063;28;20026;-66
2023/08/24 00:52:20;;;;;;;7.07;6.38;;;;;;;16.91;100.00;101596.94;4990600;28;20026;-66
2023/08/24 00:54:46;;;;;;;7.68;6.88;;;;;;;16.89;100.00;101599.53;4990988;28;20028;-66
2023/08/24 00:57:12;;;;;;;7.05;6.45;;;;;;;16.86;100.00;101596.88;4991105;28;20061;-66
2023/08/24 00:59:39;;;;;;;7.70;7.00;;;;;;;16.87;100.00;101597.75;4990550;28;20510;-67
2023/08/24 01:02:04;;;;;;;9.00;7.15;;;;;;;16.87;100.00;101603.88;4991071;28;20142;-65
2023/08/24 01:04:29;;;;;;;7.50;6.70;;;;;;;16.87;100.00;101601.28;4990576;28;20023;-67
2023/08/24 01:06:55;;;;;;;7.32;6.40;;;;;;;16.87;100.00;101603.00;4990911;28;20030;-66
2023/08/24 01:09:21;;;;;;;9.40;6.63;;;;;;;16.86;100.00;101606.44;4990406;28;20105;-66
2023/08/24 01:11:51;;;;;;;9.23;7.28;;;;;;;16.86;100.00;101598.59;4990590;28;20420;-66
2023/08/24 01:14:30;;;;;;;9.35;7.45;;;;;;;16.88;100.00;101596.91;4991005;28;20454;-67
2023/08/24 01:16:59;;;;;;;8.02;7.25;;;;;;;16.90;100.00;101584.72;4989922;28;20541;-66
2023/08/24 01:19:43;;;;;;;8.77;7.97;;;;;;;16.91;100.00;101591.72;4990785;28;20648;-66
2023/08/24 01:22:32;;;;;;;11.20;8.32;;;;;;;16.91;100.00;101603.06;4990524;28;20088;-66
2023/08/24 01:25:10;;;;;;;8.00;7.00;;;;;;;16.91;100.00;101596.94;4990870;28;20042;-64
2023/08/24 01:27:36;;;;;;;9.55;8.40;;;;;;;16.90;100.00;101585.63;4989987;28;20117;-66
2023/08/24 01:30:03;;;;;;;9.18;8.18;;;;;;;16.89;100.00;101582.97;4990114;28;20030;-63
2023/08/24 01:32:31;;;;;;;9.77;7.82;;;;;;;16.88;100.00;101586.44;4978275;28;20071;-66
2023/08/24 01:34:57;;;;;;;8.80;7.90;;;;;;;16.87;100.00;101579.44;4989819;28;20081;-66
2023/08/24 01:37:22;;;;;;;9.90;7.47;;;;;;;16.88;100.00;101587.31;4990076;28;20458;-66
2023/08/24 01:40:05;;;;;;;9.00;8.10;;;;;;;16.91;100.00;101595.22;4990446;28;20048;-67
2023/08/24 01:42:33;;;;;;;9.55;7.78;;;;;;;16.94;100.00;101597.03;4990597;28;20758;-66
2023/08/24 01:45:07;;;;;;;9.20;8.32;;;;;;;16.95;100.00;101592.63;4989933;28;20105;-67
2023/08/24 01:47:33;;;;;;;8.40;7.63;;;;;;;16.96;100.00;101583.94;4989628;28;20022;-67
2023/08/24 01:49:59;;;;;;;10.70;8.18;;;;;;;16.96;100.00;101586.56;4989922;28;20020;-66
2023/08/24 01:52:26;;;;;;;11.30;8.02;;;;;;;16.97;100.00;101583.09;4989882;28;20022;-67
2023/08/24 01:54:51;;;;;;;12.75;8.52;;;;;;;16.98;100.00;101587.47;4989690;28;20355;-67
2023/08/24 01:57:17;;;;;;;9.23;8.20;;;;;;;16.97;100.00;101591.84;4989784;28;20053;-67
2023/08/24 01:59:42;;;;;;;9.63;8.63;;;;;;;16.98;100.00;101590.97;4989787;28;20014;-67
2023/08/24 02:02:07;;;;;;;9.60;8.07;;;;;;;16.99;100.00;101599.72;4989803;28;20030;-66
2023/08/24 02:04:33;;;;;;;8.40;7.65;;;;;;;16.99;100.00;101605.84;4989389;28;20724;-66
2023/08/24 02:06:58;;;;;;;8.80;7.93;;;;;;;16.99;100.00;101603.22;4989938;28;20022;-67
2023/08/24 02:09:23;;;;;;;9.48;8.57;;;;;;;17.02;100.00;101599.75;4989391;28;20175;-63
2023/08/24 02:11:48;;;;;;;8.40;7.60;;;;;;;17.03;100.00;101599.81;4989528;28;20405;-67
2023/08/24 02:14:14;;;;;;;8.48;7.75;;;;;;;17.04;100.00;101598.94;4989505;28;20014;-66
2023/08/24 02:16:39;;;;;;;8.18;7.40;;;;;;;17.03;100.00;101578.88;4989567;28;20042;-67
2023/08/24 02:19:05;;;;;;;8.75;8.00;;;;;;;17.03;100.00;101557.91;4988694;28;20046;-65
2023/08/24 02:21:30;;;;;;;9.27;8.30;;;;;;;17.03;100.00;101560.53;4988716;28;20412;-65
2023/08/24 02:23:56;;;;;;;9.75;8.75;;;;;;;17.04;100.00;101575.38;4989145;28;20030;-67
2023/08/24 02:26:21;;;;;;;9.40;8.07;;;;;;;17.05;100.00;101579.75;4989660;28;20105;-66
2023/08/24 02:28:46;;;;;;;12.00;7.80;;;;;;;17.08;100.00;101585.88;4988844;28;20494;-64
2023/08/24 02:31:12;;;;;;;8.57;7.25;;;;;;;17.10;100.00;101572.00;4979718;28;20463;-67
2023/08/24 02:33:37;;;;;;;8.48;7.55;;;;;;;17.11;100.00;101559.78;4986331;28;20015;-66
2023/08/24 02:36:02;;;;;;;9.77;7.57;;;;;;;17.11;100.00;101573.75;4989541;28;20026;-66
2023/08/24 02:38:28;;;;;;;9.05;8.15;;;;;;;17.11;100.00;101588.59;4988838;28;20023;-66
2023/08/24 02:41:07;;;;;;;8.57;7.25;;;;;;;17.12;100.00;101579.88;4989441;28;20077;-67
2023/08/24 02:43:34;;;;;;;11.13;8.35;;;;;;;17.13;100.00;101571.16;4985801;28;20026;-67
2023/08/24 02:46:03;;;;;;;9.48;8.13;;;;;;;17.13;100.00;101553.72;4981609;28;20033;-65
2023/08/24 02:48:29;;;;;;;10.35;8.73;;;;;;;17.11;100.00;101542.34;4988662;28;20026;-67
2023/08/24 02:50:59;;;;;;;10.05;8.48;;;;;;;17.10;100.00;101537.06;4988712;28;20101;-65
2023/08/24 02:53:24;;;;;;;8.43;7.63;;;;;;;17.10;100.00;101539.66;4989050;28;20023;-68
2023/08/24 02:55:50;;;;;;;10.05;7.78;;;;;;;17.08;100.00;101526.56;4988060;28;20034;-66
2023/08/24 02:58:15;;;;;;;9.38;8.48;;;;;;;17.03;100.00;101523.88;4988810;28;20022;-66
2023/08/24 03:00:40;;;;;;;9.20;8.32;;;;;;;17.03;100.00;101516.03;4989180;28;20030;-67
2023/08/24 03:03:05;;;;;;;10.90;8.88;;;;;;;17.03;100.00;101508.19;4988527;28;20500;-67
2023/08/24 03:05:32;;;;;;;12.45;9.20;;;;;;;17.04;100.00;101494.22;4988214;28;20049;-66
2023/08/24 03:07:57;;;;;;;11.07;8.60;;;;;;;17.02;100.00;101495.94;4988759;28;20138;-65
2023/08/24 03:10:23;;;;;;;10.40;9.27;;;;;;;16.98;100.00;101467.06;4989113;28;20552;-66
2023/08/24 03:12:48;;;;;;;10.88;9.88;;;;;;;16.93;100.00;101443.44;4988004;28;20010;-67
2023/08/24 03:15:13;;;;;;;11.60;10.50;;;;;;;16.89;100.00;101428.56;4988664;28;20038;-67
2023/08/24 03:17:38;;;;;;;11.55;10.35;;;;;;;16.83;100.00;101425.81;4987543;28;20503;-66
2023/08/24 03:20:05;;;;;;;12.13;10.93;;;;;;;16.79;100.00;101425.78;4988626;28;20402;-65
2023/08/24 03:22:30;;;;;;;14.73;12.00;;;;;;;16.75;100.00;101430.94;4988507;28;20034;-66
2023/08/24 03:24:55;;;;;;;15.88;11.80;;;;;;;16.69;100.00;101429.13;4988175;28;20815;-67
2023/08/24 03:27:21;;;;;;;12.75;11.45;;;;;;;16.71;100.00;101427.41;4988151;28;20023;-66
2023/08/24 03:29:46;;;;;;;14.75;12.55;;;;;;;16.73;100.00;101407.38;4988468;28;20032;-67
2023/08/24 03:32:11;;;;;;;14.65;12.27;;;;;;;16.75;100.00;101403.03;4975183;28;20419;-67
2023/08/24 03:34:36;;;;;;;15.70;12.98;;;;;;;16.74;100.00;101403.00;4987892;28;20114;-67
2023/08/24 03:37:02;;;;;;;15.07;13.50;;;;;;;16.76;100.00;101388.22;4988037;28;20382;-67
2023/08/24 03:39:27;;;;;;;19.75;14.77;;;;;;;16.76;100.00;101381.25;4987879;28;20028;-65
2023/08/24 03:41:52;;;;;;;19.77;14.55;;;;;;;16.78;100.00;101371.66;4988318;28;20190;-67
2023/08/24 03:44:18;;;;;;;17.08;14.95;;;;;;;16.81;100.00;101360.38;4988166;28;20117;-67
2023/08/24 03:46:43;;;;;;;16.60;14.93;;;;;;;16.79;100.00;101357.75;4987198;28;20041;-67
2023/08/24 03:49:08;;;;;;;16.85;14.95;;;;;;;16.83;100.00;101356.06;4988170;28;20536;-67
2023/08/24 03:51:33;;;;;;;16.45;14.73;;;;;;;16.86;100.00;101363.06;4987963;28;20029;-67
2023/08/24 03:53:59;;;;;;;16.23;14.15;;;;;;;16.88;100.00;101364.84;4987927;28;20030;-67
2023/08/24 03:56:24;;;;;;;17.48;14.68;;;;;;;16.92;100.00;101371.91;4987952;28;20265;-67
2023/08/24 03:58:50;;;;;;;18.00;15.43;;;;;;;16.96;100.00;101372.81;4987860;28;20105;-66
2023/08/24 04:01:15;;;;;;;16.52;14.77;;;;;;;16.99;100.00;101378.09;4987499;28;20058;-65
2023/08/24 04:03:40;;;;;;;16.70;14.85;;;;;;;17.03;100.00;101387.75;4988267;28;20149;-65
2023/08/24 04:06:05;;;;;;;17.58;15.07;;;;;;;17.09;100.00;101393.94;4987882;28;20026;-66
2023/08/24 04:08:31;;;;;;;16.42;14.82;;;;;;;17.11;100.00;101390.50;4988194;28;20125;-66
2023/08/24 04:10:56;;;;;;;18.85;15.07;;;;;;;17.13;100.00;101394.00;4987337;28;20022;-67
2023/08/24 04:13:21;;;;;;;16.98;14.75;;;;;;;17.18;100.00;101394.06;4988022;28;20045;-67
2023/08/24 04:15:47;;;;;;;18.90;16.90;;;;;;;17.19;100.00;101393.22;4987851;28;20488;-66
2023/08/24 04:18:12;;;;;;;19.92;17.83;;;;;;;17.21;100.00;101395.84;4987986;28;20517;-67
2023/08/24 04:20:37;;;;;;;19.23;17.25;;;;;;;17.20;100.00;101402.81;4987817;28;20022;-67
2023/08/24 04:23:03;;;;;;;20.75;18.67;;;;;;;17.21;100.00;101401.09;4987621;28;20105;-67
2023/08/24 04:25:29;;;;;;;20.17;17.83;;;;;;;17.20;100.00;101394.97;4987776;28;20026;-67
2023/08/24 04:27:54;;;;;;;19.77;17.13;;;;;;;17.18;100.00;101395.81;4982362;28;20038;-66
2023/08/24 04:30:21;;;;;;;19.63;17.52;;;;;;;17.17;100.00;101405.41;4982215;28;20038;-67
2023/08/24 04:32:46;;;;;;;19.70;17.75;;;;;;;17.16;100.00;101403.66;4987012;28;20022;-67
2023/08/24 04:35:12;;;;;;;24.48;18.35;;;;;;;17.17;100.00;101410.66;4988090;28;20125;-66
2023/08/24 04:37:38;;;;;;;20.48;17.75;;;;;;;17.15;100.00;101402.78;4986058;28;20041;-66
2023/08/24 04:40:04;;;;;;;19.73;17.83;;;;;;;17.16;100.00;101409.75;4985506;28;20044;-67
2023/08/24 04:42:29;;;;;;;19.15;17.15;;;;;;;17.17;100.00;101415.88;4985355;28;20536;-67
2023/08/24 04:44:55;;;;;;;19.70;17.73;;;;;;;17.17;100.00;101405.41;4987588;28;20235;-64
2023/08/24 04:47:20;;;;;;;19.38;17.48;;;;;;;17.18;100.00;101404.53;4989330;28;20031;-67
2023/08/24 04:49:45;;;;;;;20.80;18.58;;;;;;;17.18;100.00;101401.91;4988507;28;20478;-65
2023/08/24 04:52:10;;;;;;;21.25;18.55;;;;;;;17.19;100.00;101400.19;4988896;28;20030;-65
2023/08/24 04:54:36;;;;;;;20.20;18.08;;;;;;;17.18;100.00;101401.91;4989456;28;20029;-66
2023/08/24 04:57:01;;;;;;;19.27;16.90;;;;;;;17.19;100.00;101398.47;4988866;28;20018;-66
2023/08/24 04:59:26;;;;;;;20.15;18.02;;;;;;;17.17;100.00;101394.94;4990703;28;20488;-66
2023/08/24 05:01:51;;;;;;;21.48;18.83;;;;;;;17.15;100.00;101389.69;4990986;28;20073;-66
2023/08/24 05:04:17;;;;;;;20.67;18.40;;;;;;;17.13;100.00;101394.00;4990101;28;20033;-66
2023/08/24 05:06:42;;;;;;;21.00;18.98;;;;;;;17.13;100.00;101393.13;4990252;28;20034;-66
2023/08/24 05:09:08;;;;;;;20.52;17.85;;;;;;;17.13;100.00;101398.34;4984812;28;20050;-66
2023/08/24 05:11:33;;;;;;;20.30;18.20;;;;;;;17.11;100.00;101406.19;4983933;28;20040;-67
2023/08/24 05:13:58;;;;;;;21.30;19.08;;;;;;;17.12;100.00;101412.31;4983282;28;20482;-64
2023/08/24 05:16:24;;;;;;;19.80;17.77;;;;;;;17.10;100.00;101404.44;4975732;28;20398;-67
2023/08/24 05:18:49;;;;;;;22.08;19.13;;;;;;;17.09;100.00;101405.25;4983556;28;20071;-68
2023/08/24 05:21:14;;;;;;;22.15;19.85;;;;;;;17.05;100.00;101409.56;4982209;28;20073;-68
2023/08/24 05:23:40;;;;;;;23.63;21.05;;;;;;;17.02;100.00;101396.44;4966240;28;20035;-66
2023/08/24 05:26:05;;;;;;;22.75;20.65;;;;;;;17.04;100.00;101393.84;4983101;28;20037;-67
2023/08/24 05:28:31;;;;;;;23.15;20.63;;;;;;;17.04;100.00;101384.25;4980995;28;20049;-67
2023/08/24 05:30:57;;;;;;;23.30;20.92;;;;;;;17.09;100.00;101383.47;4978116;28;20057;-66
2023/08/24 05:33:23;;;;;;;21.67;19.52;;;;;;;17.13;100.00;101387.88;4973736;28;20026;-65
2023/08/24 05:35:50;;;;;;;22.40;20.25;;;;;;;17.20;100.00;101392.34;4976140;28;20363;-68
2023/08/24 05:38:16;;;;;;;22.42;20.13;;;;;;;17.25;100.00;101382.81;4986911;28;20034;-67
2023/08/24 05:40:42;;;;;;;23.50;19.52;;;;;;;17.30;100.00;101388.13;4987065;28;20133;-67
2023/08/24 05:43:11;;;;;;;21.73;19.35;;;;;;;17.34;100.00;101382.03;4982366;28;20121;-62
2023/08/24 05:45:39;;;;;;;21.38;19.27;;;;;;;17.40;100.00;101386.47;4986836;28;20041;-67
2023/08/24 05:48:04;;;;;;;23.95;21.65;;;;;;;17.44;100.00;101371.69;4982623;28;20855;-66
2023/08/24 05:50:30;;;;;;;22.55;20.20;;;;;;;17.50;100.00;101372.63;4986742;28;20030;-67
2023/08/24 05:52:55;;;;;;;21.65;19.42;;;;;;;17.50;100.00;101370.00;4977093;28;20073;-68
2023/08/24 05:55:20;;;;;;;22.98;20.67;;;;;;;17.51;100.00;101379.66;4979776;28;20026;-66
2023/08/24 05:57:46;;;;;;;22.55;19.98;;;;;;;17.55;100.00;101372.69;4986897;28;20030;-66
2023/08/24 06:00:12;;;;;;;22.50;19.85;;;;;;;17.59;100.00;101366.63;4988725;28;20081;-67
2023/08/24 06:02:37;;;;;;;22.98;20.45;;;;;;;17.64;100.00;101353.59;4988428;28;20057;-66
2023/08/24 06:05:03;;;;;;;23.50;21.02;;;;;;;17.72;100.00;101351.06;4989610;28;20561;-68
2023/08/24 06:07:29;;;;;;;23.02;20.65;;;;;;;17.77;100.00;101337.09;4989050;28;20080;-66
2023/08/24 06:09:54;;;;;;;22.05;19.85;;;;;;;17.85;100.00;101341.53;4989500;28;20039;-67
2023/08/24 06:12:19;;;;;;;23.15;20.70;;;;;;;17.92;100.00;101332.88;4989626;28;20046;-65
2023/08/24 06:14:44;;;;;;;21.60;19.40;;;;;;;18.01;100.00;101321.59;4988516;28;20418;-67
2023/08/24 06:17:10;;;;;;;23.80;21.40;;;;;;;18.09;100.00;101311.19;4984869;28;20026;-64
2023/08/24 06:19:35;;;;;;;21.85;19.65;;;;;;;18.17;100.00;101306.91;4988885;28;20027;-66
2023/08/24 06:22:00;;;;;;;23.42;21.13;;;;;;;18.21;100.00;101313.03;4989382;28;20064;-67
2023/08/24 06:24:25;;;;;;;23.55;21.08;;;;;;;18.30;100.00;101312.22;4988697;28;20026;-68
2023/08/24 06:26:51;;;;;;;22.70;19.85;;;;;;;18.39;100.00;101317.56;4988205;28;20034;-67
2023/08/24 06:29:16;;;;;;;22.10;19.88;;;;;;;18.47;100.00;101320.25;4989066;28;20346;-66
2023/08/24 06:31:42;;;;;;;22.17;20.00;;;;;;;18.58;100.00;101328.19;4975755;28;20472;-67
2023/08/24 06:34:07;;;;;;;20.77;18.75;;;;;;;18.67;100.00;101333.47;4989222;28;20025;-68
2023/08/24 06:36:32;;;;;;;22.42;20.42;;;;;;;18.78;100.00;101330.91;4988892;28;20034;-67
2023/08/24 06:38:58;;;;;;;22.17;20.20;;;;;;;18.90;100.00;101331.84;4988925;28;20022;-68
2023/08/24 06:41:24;;;;;;;20.70;18.67;;;;;;;19.00;100.00;101333.63;4988492;28;20033;-65
2023/08/24 06:43:49;;;;;;;20.10;18.02;;;;;;;19.12;100.00;101340.75;4988723;28;20482;-66
2023/08/24 06:46:14;;;;;;;18.52;16.70;;;;;;;19.26;100.00;101334.66;4988755;28;20561;-66
2023/08/24 06:48:41;;;;;;;20.30;18.15;;;;;;;19.36;100.00;101331.19;4988055;28;20026;-66
2023/08/24 06:51:07;;;;;;;20.80;18.60;;;;;;;19.48;100.00;101332.09;4988476;28;20053;-68
2023/08/24 06:53:32;;;;;;;19.67;17.40;;;;;;;19.60;100.00;101334.75;4988239;28;20274;-67
2023/08/24 06:55:58;;;;;;;18.95;17.05;;;;;;;19.70;100.00;101333.00;4988713;28;20030;-68
2023/08/24 06:58:24;;;;;;;16.23;14.73;;;;;;;19.82;100.00;101326.03;4988008;28;20034;-66
2023/08/24 07:00:52;;;;;;;17.50;15.80;;;;;;;19.95;100.00;101332.19;4988938;28;20045;-68
2023/08/24 07:03:18;;;;;;;19.23;15.77;;;;;;;20.07;100.00;101326.06;4988738;28;20734;-67
2023/08/24 07:05:44;;;;;;;17.33;15.73;;;;;;;20.18;100.00;101328.69;4988654;28;20088;-67
2023/08/24 07:08:10;;;;;;;15.75;14.25;;;;;;;20.32;100.00;101329.56;4988621;28;20030;-67
2023/08/24 07:10:35;;;;;;;15.40;13.90;;;;;;;20.48;100.00;101319.00;4987807;28;20026;-65
2023/08/24 07:13:00;;;;;;;14.93;13.50;;;;;;;20.64;100.00;101320.75;4988177;28;20026;-68
2023/08/24 07:15:26;;;;;;;16.55;14.73;;;;;;;20.84;100.00;101319.81;4988306;28;20036;-67
2023/08/24 07:17:51;;;;;;;14.40;13.00;;;;;;;21.04;100.00;101310.97;4988413;28;20046;-67
2023/08/24 07:20:16;;;;;;;14.38;13.07;;;;;;;21.24;100.00;101313.50;4987781;28;20081;-68
2023/08/24 07:22:42;;;;;;;15.25;13.35;;;;;;;21.44;100.00;101307.25;4988178;28;20026;-68
2023/08/24 07:25:08;;;;;;;16.85;14.80;;;;;;;21.71;100.00;101307.09;4988512;28;20026;-68
2023/08/24 07:27:34;;;;;;;15.45;13.82;;;;;;;21.97;100.00;101302.50;4987985;28;20353;-68
2023/08/24 07:30:00;;;;;;;16.83;13.20;;;;;;;22.20;100.00;101307.56;4987952;28;20033;-65
2023/08/24 07:32:26;;;;;;;15.68;14.02;;;;;;;22.42;100.00;101320.56;4977406;28;20034;-69
2023/08/24 07:34:52;;;;;;;14.02;12.60;;;;;;;22.60;100.00;101313.34;4988350;28;20080;-69
2023/08/24 07:37:17;;;;;;;13.25;11.93;;;;;;;22.92;100.00;101309.47;4987511;28;20483;-69
2023/08/24 07:39:42;;;;;;;12.65;11.35;;;;;;;23.06;100.00;101306.69;4988241;28;20022;-66
2023/08/24 07:42:08;;;;;;;12.65;11.30;;;;;;;23.18;100.00;101310.91;4988762;28;20034;-69
2023/08/24 07:44:33;;;;;;;12.07;10.80;;;;;;;23.36;100.00;101306.25;4987979;28;20037;-69
2023/08/24 07:46:58;;;;;;;12.82;11.52;;;;;;;23.58;100.00;101298.94;4988331;28;20382;-67
2023/08/24 07:49:24;;;;;;;12.68;10.18;;;;;;;23.80;100.00;101300.34;4988501;28;20259;-67
2023/08/24 07:51:49;;;;;;;11.18;9.88;;;;;;;23.92;100.00;101292.22;4987893;28;20018;-67
2023/08/24 07:54:14;;;;;;;15.02;11.60;;;;;;;23.91;100.00;101301.03;4988398;28;20431;-67
2023/08/24 07:56:39;;;;;;;12.65;9.80;;;;;;;23.90;99.29;101309.00;4987296;28;20025;-66
2023/08/24 07:59:05;;;;;;;11.57;10.32;;;;;;;23.86;98.86;101303.75;4986351;28;20109;-66
2023/08/24 08:01:30;;;;;;;12.13;10.85;;;;;;;23.90;100.00;101296.66;4986319;28;20080;-67
2023/08/24 08:03:55;;;;;;;12.00;10.75;;;;;;;23.97;100.00;101310.63;4986449;28;20053;-65
2023/08/24 08:06:21;;;;;;;11.18;9.57;;;;;;;23.97;100.00;101311.53;4986096;28;20137;-66
2023/08/24 08:08:47;;;;;;;11.15;9.65;;;;;;;24.01;100.00;101301.75;4986706;28;20026;-66
2023/08/24 08:11:12;;;;;;;13.05;10.20;;;;;;;24.03;99.98;101294.69;4986153;28;20541;-67
2023/08/24 08:13:37;;;;;;;13.18;11.43;;;;;;;24.06;97.09;101299.03;4980549;28;20053;-64
2023/08/24 08:16:07;;;;;;;11.75;10.55;;;;;;;24.13;99.04;101305.97;4987804;28;20042;-66
2023/08/24 08:18:33;;;;;;;13.77;9.93;;;;;;;24.17;96.08;101304.13;4987674;28;20051;-66
2023/08/24 08:20:58;;;;;;;13.07;11.77;;;;;;;24.19;95.37;101305.91;4986730;28;20050;-67
2023/08/24 08:23:24;;;;;;;12.30;11.02;;;;;;;24.28;96.23;101298.69;4992037;28;20108;-67
2023/08/24 08:25:50;;;;;;;13.15;11.02;;;;;;;24.30;95.34;101291.59;4991449;28;20082;-66
2023/08/24 08:28:16;;;;;;;11.90;10.63;;;;;;;24.34;97.15;101283.53;4991696;28;20026;-68
2023/08/24 08:30:41;;;;;;;11.82;10.63;;;;;;;24.46;99.93;101277.16;4985797;28;20018;-66
2023/08/24 08:33:06;;;;;;;12.80;11.38;;;;;;;24.53;98.67;101277.03;4991650;28;20415;-67
2023/08/24 08:35:31;;;;;;;13.32;11.10;;;;;;;24.55;98.76;101275.22;4991107;28;20030;-66
2023/08/24 08:37:57;;;;;;;12.32;11.00;;;;;;;24.58;99.42;101278.69;4991498;28;20034;-67
2023/08/24 08:40:30;;;;;;;11.98;10.73;;;;;;;24.63;98.58;101273.28;4990956;28;20030;-67
2023/08/24 08:42:57;;;;;;;12.88;11.65;;;;;;;24.62;93.46;101270.66;4991380;28;20038;-65
2023/08/24 08:45:26;;;;;;;11.48;10.38;;;;;;;24.64;96.86;101269.75;4990665;28;20034;-66
2023/08/24 08:47:53;;;;;;;12.25;10.75;;;;;;;24.64;94.80;101253.84;4991333;28;20210;-66
2023/08/24 08:50:20;;;;;;;13.27;11.52;;;;;;;24.60;95.10;101241.56;4991181;28;20434;-67
2023/08/24 08:52:45;;;;;;;12.18;10.60;;;;;;;24.57;96.95;101233.69;4990350;28;20026;-66
2023/08/24 08:55:11;;;;;;;14.60;11.57;;;;;;;24.56;97.16;101232.81;4979180;28;20124;-66
2023/08/24 08:57:39;;;;;;;13.68;11.98;;;;;;;24.58;97.90;101224.81;4990644;28;20466;-67
2023/08/24 09:00:05;;;;;;;13.02;11.40;;;;;;;24.60;100.00;101215.06;4979324;28;20026;-68
2023/08/24 09:02:32;;;;;;;12.35;10.75;;;;;;;24.64;100.00;101210.59;4991212;28;20549;-67
2023/08/24 09:04:58;;;;;;;12.75;11.45;;;;;;;24.64;99.49;101206.16;4991581;28;20466;-67
2023/08/24 09:07:24;;;;;;;14.75;13.10;;;;;;;24.70;100.00;101199.84;4990560;28;20105;-66
2023/08/24 09:09:50;;;;;;;14.15;12.52;;;;;;;24.75;99.60;101175.91;4991240;28;20045;-67
2023/08/24 09:12:15;;;;;;;13.57;12.23;;;;;;;24.77;99.77;101174.09;4991094;28;20027;-65
2023/08/24 09:14:41;;;;;;;14.70;11.70;;;;;;;24.78;97.61;101171.41;4991011;28;20085;-67
2023/08/24 09:17:07;;;;;;;15.65;13.27;;;;;;;24.74;98.93;101169.75;4990319;28;20106;-67
2023/08/24 09:19:35;;;;;;;14.50;11.77;;;;;;;24.78;99.82;101162.59;4990449;28;20022;-66
2023/08/24 09:22:02;;;;;;;12.63;11.32;;;;;;;24.80;98.31;101158.13;4990539;28;20048;-66
2023/08/24 09:24:35;;;;;;;12.32;11.13;;;;;;;24.80;98.68;101152.84;4990413;28;20057;-66
2023/08/24 09:27:14;;;;;;;12.98;11.60;;;;;;;24.82;98.07;101151.03;4990568;28;20060;-66
2023/08/24 09:29:39;;;;;;;11.75;10.55;;;;;;;24.85;99.01;101148.31;4990397;28;20055;-66
2023/08/24 09:32:07;;;;;;;11.95;10.23;;;;;;;24.89;98.50;101157.94;4988731;28;20022;-67
2023/08/24 09:34:33;;;;;;;11.68;10.48;;;;;;;24.89;97.20;101155.28;4990428;28;20074;-67
2023/08/24 09:36:58;;;;;;;12.07;9.82;;;;;;;24.94;98.08;101163.13;4989811;28;20026;-67
2023/08/24 09:39:23;;;;;;;10.93;8.90;;;;;;;24.96;97.07;101169.28;4990083;28;20033;-65
2023/08/24 09:41:50;;;;;;;10.75;9.70;;;;;;;25.03;98.33;101180.59;4990419;28;20021;-66
2023/08/24 09:44:18;;;;;;;12.57;8.20;;;;;;;24.97;98.04;101197.50;4990158;28;20473;-65
2023/08/24 09:46:44;;;;;;;9.38;7.80;;;;;;;25.02;98.78;101210.69;4990233;28;20414;-65
2023/08/24 09:49:11;;;;;;;10.60;7.82;;;;;;;25.05;97.44;101210.59;4990121;28;20034;-67
2023/08/24 09:51:38;;;;;;;9.35;8.45;;;;;;;25.09;97.22;101209.63;4990693;28;20025;-67
2023/08/24 09:54:08;;;;;;;8.32;7.47;;;;;;;25.12;100.00;101200.72;4987591;28;20030;-64
2023/08/24 09:56:35;;;;;;;10.18;8.30;;;;;;;25.14;99.98;101199.78;4975977;28;20042;-67
2023/08/24 09:59:09;;;;;;;11.13;8.52;;;;;;;25.17;100.00;101204.13;4981997;28;20473;-66
2023/08/24 10:01:36;;;;;;;14.38;8.82;;;;;;;25.14;100.00;101210.38;4980555;28;20033;-67
2023/08/24 10:04:05;;;;;;;12.23;8.95;;;;;;;25.15;100.00;101208.63;4986717;28;20411;-66
2023/08/24 10:06:32;;;;;;;10.82;8.35;;;;;;;25.14;100.00;101209.50;4989332;28;20086;-66
2023/08/24 10:09:01;;;;;;;11.68;8.80;;;;;;;25.13;100.00;101216.56;4989314;28;20049;-66
2023/08/24 10:11:28;;;;;;;8.85;7.72;;;;;;;25.11;100.00;101215.78;4989467;28;20490;-66
2023/08/24 10:14:07;;;;;;;10.00;8.40;;;;;;;25.08;100.00;101221.13;4988181;28;20022;-66
2023/08/24 10:16:33;;;;;;;9.50;8.55;;;;;;;25.04;100.00;101230.91;4988053;28;20054;-65
2023/08/24 10:18:59;;;;;;;9.00;7.93;;;;;;;24.98;100.00;101231.06;4982321;28;20054;-67
2023/08/24 10:21:28;;;;;;;10.35;9.15;;;;;;;24.87;100.00;101223.34;4986139;28;20041;-64
2023/08/24 10:23:56;;;;;;;8.95;7.03;;;;;;;24.75;100.00;101219.19;4983195;28;20201;-66
2023/08/24 10:26:23;;;;;;;9.63;6.55;;;;;;;24.72;100.00;101213.06;4984477;28;20113;-66
2023/08/24 10:28:51;;;;;;;10.75;8.15;;;;;;;24.67;100.00;101206.09;4983754;28;20053;-67
2023/08/24 10:31:17;;;;;;;7.85;6.97;;;;;;;24.63;100.00;101208.84;4988725;28;20498;-66
2023/08/24 10:33:45;;;;;;;8.63;7.40;;;;;;;24.55;100.00;101209.88;4985330;28;20165;-66
2023/08/24 10:36:13;;;;;;;8.55;7.60;;;;;;;24.53;100.00;101218.75;4982668;28;20062;-64
2023/08/24 10:38:44;;;;;;;7.05;6.28;;;;;;;24.46;100.00;101226.84;4985105;28;20026;-66
2023/08/24 10:41:13;;;;;;;7.10;5.88;;;;;;;24.41;100.00;101225.19;4980051;28;20062;-65
2023/08/24 10:43:41;;;;;;;8.98;6.32;;;;;;;24.35;100.00;101231.47;4987352;28;20093;-68
2023/08/24 10:46:13;;;;;;;7.25;6.47;;;;;;;24.31;100.00;101230.66;4989471;28;20462;-66
2023/08/24 10:48:41;;;;;;;6.82;4.82;;;;;;;24.29;100.00;101237.75;4989038;28;20470;-66
2023/08/24 10:51:22;;;;;;;8.40;4.75;;;;;;;24.27;100.00;101241.34;4987564;28;20026;-65
2023/08/24 10:53:55;;;;;;;6.53;4.82;;;;;;;24.28;100.00;101237.78;4988767;28;20027;-66
2023/08/24 10:56:24;;;;;;;4.80;3.83;;;;;;;24.19;100.00;101234.44;4987829;28;20109;-66
2023/08/24 10:59:11;;;;;;;7.05;4.32;;;;;;;24.09;100.00;101232.78;4987220;28;20080;-66
2023/08/24 11:01:41;;;;;;;6.80;4.07;;;;;;;24.10;100.00;101221.31;4987147;28;20041;-66
2023/08/24 11:04:07;;;;;;;7.20;4.13;;;;;;;24.08;100.00;101207.25;4987013;28;20097;-66
2023/08/24 11:06:33;;;;;;;6.97;4.72;;;;;;;24.12;100.00;101198.34;4987463;28;20537;-66